createdAt,value
2022-11-28T00:01:18.002Z,10.95
2022-11-28T00:03:46.286Z,12.80
2022-11-28T00:06:14.832Z,11.77
2022-11-28T00:08:44.647Z,10.93
2022-11-28T00:11:13.839Z,13.23
2022-11-28T00:13:42.265Z,11.55
2022-11-28T00:16:11.247Z,11.30
2022-11-28T00:18:39.560Z,11.65
2022-11-28T00:21:09.038Z,13.40
2022-11-28T00:23:37.488Z,12.23
2022-11-28T00:26:08.093Z,12.40
2022-11-28T00:28:36.352Z,11.65
2022-11-28T00:31:04.749Z,10.70
2022-11-28T00:33:33.086Z,11.40
2022-11-28T00:36:01.804Z,10.70
2022-11-28T00:38:30.544Z,12.57
2022-11-28T00:41:01.973Z,10.60
2022-11-28T00:43:31.600Z,11.20
2022-11-28T00:46:00.165Z,10.70
2022-11-28T00:48:28.695Z,15.43
2022-11-28T00:50:57.249Z,12.70
2022-11-28T00:53:25.484Z,12.00
2022-11-28T00:55:53.752Z,12.90
2022-11-28T00:58:22.041Z,10.57
2022-11-28T01:00:51.668Z,10.30
2022-11-28T01:03:20.276Z,10.13
2022-11-28T01:05:48.585Z,12.32
2022-11-28T01:08:16.892Z,10.17
2022-11-28T01:10:46.222Z,12.02
2022-11-28T01:13:14.503Z,10.32
2022-11-28T01:15:43.327Z,10.20
2022-11-28T01:18:12.939Z,12.23
2022-11-28T01:20:41.241Z,11.73
2022-11-28T01:23:09.527Z,10.90
2022-11-28T01:25:37.807Z,9.80
2022-11-28T01:28:06.207Z,9.80
2022-11-28T01:30:35.443Z,11.25
2022-11-28T01:33:03.686Z,10.73
2022-11-28T01:35:33.289Z,11.52
2022-11-28T01:38:01.496Z,10.43
2022-11-28T01:40:29.740Z,12.73
2022-11-28T01:42:57.935Z,10.60
2022-11-28T01:45:27.048Z,10.70
2022-11-28T01:47:58.175Z,9.60
2022-11-28T01:50:26.751Z,11.68
2022-11-28T01:52:57.893Z,10.85
2022-11-28T01:55:27.691Z,11.68
2022-11-28T01:57:56.866Z,9.27
2022-11-28T02:00:25.246Z,9.52
2022-11-28T02:02:55.665Z,9.47
2022-11-28T02:05:24.583Z,9.02
2022-11-28T02:07:53.333Z,8.70
2022-11-28T02:10:25.364Z,8.50
2022-11-28T02:13:04.280Z,8.73
2022-11-28T02:15:42.762Z,8.90
2022-11-28T02:18:19.222Z,7.80
2022-11-28T02:21:04.919Z,8.63
2022-11-28T02:23:40.445Z,8.00
2022-11-28T02:26:24.235Z,7.90
2022-11-28T02:29:00.927Z,8.20
2022-11-28T02:31:37.597Z,6.75
2022-11-28T02:34:11.678Z,7.50
2022-11-28T02:36:43.640Z,6.57
2022-11-28T02:39:14.408Z,6.90
2022-11-28T02:41:45.093Z,6.70
2022-11-28T02:44:14.819Z,6.90
2022-11-28T02:46:45.385Z,7.05
2022-11-28T02:49:17.310Z,7.13
2022-11-28T02:51:48.028Z,6.28
2022-11-28T02:54:17.557Z,5.00
2022-11-28T02:56:49.174Z,6.38
2022-11-28T02:59:27.477Z,5.93
2022-11-28T03:01:55.800Z,6.95
2022-11-28T03:04:27.751Z,5.72
2022-11-28T03:07:00.022Z,5.70
2022-11-28T03:09:38.542Z,6.00
2022-11-28T03:12:12.987Z,6.30
2022-11-28T03:14:45.552Z,6.45
2022-11-28T03:17:19.389Z,6.35
2022-11-28T03:19:53.931Z,6.50
2022-11-28T03:22:28.503Z,6.53
2022-11-28T03:24:59.077Z,6.63
2022-11-28T03:27:31.936Z,7.05
2022-11-28T03:30:02.708Z,7.50
2022-11-28T03:32:32.278Z,7.30
2022-11-28T03:35:04.562Z,7.07
2022-11-28T03:37:35.527Z,8.23
2022-11-28T03:40:06.018Z,7.97
2022-11-28T03:42:35.420Z,7.32
2022-11-28T03:45:06.519Z,8.32
2022-11-28T03:47:36.606Z,8.80
2022-11-28T03:50:09.023Z,8.82
2022-11-28T03:52:39.770Z,9.50
2022-11-28T03:55:12.666Z,8.43
2022-11-28T03:57:44.284Z,9.45
2022-11-28T04:00:13.960Z,9.48
2022-11-28T04:02:46.790Z,9.30
2022-11-28T04:05:24.074Z,9.73
2022-11-28T04:07:54.458Z,10.65
2022-11-28T04:10:23.764Z,10.45
2022-11-28T04:12:55.600Z,10.05
2022-11-28T04:15:28.099Z,12.13
2022-11-28T04:17:58.918Z,11.07
2022-11-28T04:20:32.143Z,13.10
2022-11-28T04:23:02.756Z,13.20
2022-11-28T04:25:32.476Z,11.40
2022-11-28T04:28:02.250Z,11.55
2022-11-28T04:30:30.558Z,12.05
2022-11-28T04:33:01.015Z,11.63
2022-11-28T04:35:32.571Z,13.18
2022-11-28T04:38:01.482Z,12.52
2022-11-28T04:40:31.387Z,13.40
2022-11-28T04:43:00.625Z,14.98
2022-11-28T04:45:31.749Z,14.13
2022-11-28T04:48:00.163Z,14.60
2022-11-28T04:50:32.782Z,15.30
2022-11-28T04:53:05.765Z,13.77
2022-11-28T04:55:37.076Z,13.32
2022-11-28T04:58:07.575Z,16.80
2022-11-28T05:00:36.449Z,18.08
2022-11-28T05:03:05.857Z,15.18
2022-11-28T05:05:34.079Z,14.30
2022-11-28T05:08:03.666Z,15.13
2022-11-28T05:10:32.164Z,16.60
2022-11-28T05:13:00.384Z,17.15
2022-11-28T05:15:28.687Z,15.43
2022-11-28T05:17:56.986Z,15.68
2022-11-28T05:20:25.252Z,17.35
2022-11-28T05:22:53.470Z,18.38
2022-11-28T05:25:23.115Z,16.65
2022-11-28T05:27:51.370Z,17.20
2022-11-28T05:30:19.701Z,16.70
2022-11-28T05:32:48.071Z,17.87
2022-11-28T05:35:16.364Z,17.25
2022-11-28T05:37:44.567Z,16.65
2022-11-28T05:40:13.283Z,18.08
2022-11-28T05:42:42.916Z,16.90
2022-11-28T05:45:11.549Z,19.97
2022-11-28T05:47:39.796Z,19.33
2022-11-28T05:50:09.067Z,20.20
2022-11-28T05:52:37.339Z,17.03
2022-11-28T05:55:05.898Z,16.40
2022-11-28T05:57:34.373Z,17.08
2022-11-28T06:00:04.163Z,19.77
2022-11-28T06:02:32.487Z,16.70
2022-11-28T06:05:16.097Z,18.52
2022-11-28T06:07:49.016Z,20.83
2022-11-28T06:10:17.359Z,19.50
2022-11-28T06:12:45.625Z,18.40
2022-11-28T06:15:15.269Z,18.90
2022-11-28T06:17:43.697Z,20.00
2022-11-28T06:20:12.098Z,18.08
2022-11-28T06:22:40.451Z,21.00
2022-11-28T06:25:08.834Z,21.23
2022-11-28T06:27:37.240Z,21.60
2022-11-28T06:30:05.816Z,20.45
2022-11-28T06:32:35.383Z,20.77
2022-11-28T06:35:03.617Z,23.02
2022-11-28T06:37:31.873Z,22.90
2022-11-28T06:40:00.463Z,21.80
2022-11-28T06:42:28.752Z,22.42
2022-11-28T06:44:57.099Z,25.48
2022-11-28T06:47:25.425Z,26.13
2022-11-28T06:49:55.003Z,24.85
2022-11-28T06:52:23.332Z,26.02
2022-11-28T06:54:51.577Z,27.40
2022-11-28T06:57:19.850Z,27.67
2022-11-28T06:59:48.172Z,28.38
2022-11-28T07:02:16.515Z,28.98
2022-11-28T07:04:44.843Z,28.08
2022-11-28T07:07:16.633Z,28.95
2022-11-28T07:09:45.646Z,30.33
2022-11-28T07:12:14.121Z,29.75
2022-11-28T07:14:42.371Z,30.75
2022-11-28T07:17:11.713Z,35.58
2022-11-28T07:19:41.100Z,28.20
2022-11-28T07:22:11.313Z,30.23
2022-11-28T07:24:40.913Z,32.33
2022-11-28T07:27:09.216Z,31.30
2022-11-28T07:29:37.615Z,31.42
2022-11-28T07:32:06.369Z,34.55
2022-11-28T07:34:35.273Z,31.02
2022-11-28T07:37:03.594Z,38.40
2022-11-28T07:39:31.870Z,33.58
2022-11-28T07:42:01.524Z,37.15
2022-11-28T07:44:29.830Z,38.08
2022-11-28T07:46:58.164Z,37.67
2022-11-28T07:49:26.489Z,33.43
2022-11-28T07:51:54.768Z,34.95
2022-11-28T07:54:23.321Z,37.17
2022-11-28T07:59:41.408Z,38.90
2022-11-28T08:02:11.188Z,42.53
2022-11-28T08:04:45.942Z,43.17
2022-11-28T08:07:17.224Z,39.07
2022-11-28T08:09:47.680Z,46.47
2022-11-28T08:12:15.915Z,41.28
2022-11-28T08:14:45.843Z,47.33
2022-11-28T08:17:14.191Z,41.80
2022-11-28T08:19:42.449Z,45.28
2022-11-28T08:22:10.651Z,43.88
2022-11-28T08:24:39.092Z,44.80
2022-11-28T08:27:07.342Z,43.28
2022-11-28T08:29:35.569Z,51.00
2022-11-28T08:32:05.331Z,46.38
2022-11-28T08:34:33.613Z,49.83
2022-11-28T08:37:01.928Z,45.92
2022-11-28T08:39:30.223Z,51.10
2022-11-28T08:41:59.529Z,51.53
2022-11-28T08:44:30.386Z,53.35
2022-11-28T08:46:58.908Z,44.63
2022-11-28T08:49:28.822Z,47.47
2022-11-28T08:51:57.180Z,51.10
2022-11-28T08:54:25.493Z,49.22
2022-11-28T08:56:53.732Z,48.00
2022-11-28T08:59:22.072Z,53.85
2022-11-28T09:01:50.572Z,56.35
2022-11-28T09:04:18.984Z,52.72
2022-11-28T09:06:48.752Z,57.88
2022-11-28T09:09:17.416Z,52.23
2022-11-28T09:11:45.798Z,54.00
2022-11-28T09:14:14.223Z,53.80
2022-11-28T09:16:42.882Z,52.17
2022-11-28T09:19:11.191Z,54.42
2022-11-28T09:21:40.653Z,47.25
2022-11-28T09:24:13.890Z,49.53
2022-11-28T09:26:42.210Z,57.40
2022-11-28T09:29:10.461Z,55.70
2022-11-28T09:31:42.014Z,48.50
2022-11-28T09:34:14.128Z,52.00
2022-11-28T09:36:42.357Z,59.38
2022-11-28T09:39:12.007Z,52.37
2022-11-28T09:41:52.149Z,59.45
2022-11-28T09:44:22.973Z,54.70
2022-11-28T09:46:53.155Z,56.67
2022-11-28T09:49:26.693Z,61.05
2022-11-28T09:51:56.172Z,61.67
2022-11-28T09:54:29.295Z,60.78
2022-11-28T09:56:58.650Z,65.15
2022-11-28T09:59:28.372Z,56.50
2022-11-28T10:02:03.637Z,59.22
2022-11-28T10:04:39.642Z,57.95
2022-11-28T10:07:11.272Z,57.88
2022-11-28T10:09:44.678Z,62.20
2022-11-28T10:12:20.750Z,63.65
2022-11-28T10:14:56.329Z,60.55
2022-11-28T10:17:30.741Z,58.83
2022-11-28T10:20:02.825Z,60.13
2022-11-28T10:22:35.992Z,59.63
2022-11-28T10:25:08.315Z,57.95
2022-11-28T10:27:37.332Z,56.50
2022-11-28T10:30:07.843Z,52.35
2022-11-28T10:32:38.654Z,54.83
2022-11-28T10:35:08.476Z,55.90
2022-11-28T10:37:38.307Z,53.55
2022-11-28T10:40:18.147Z,53.95
2022-11-28T10:42:50.787Z,50.22
2022-11-28T10:45:23.795Z,48.22
2022-11-28T10:48:29.572Z,47.72
2022-11-28T10:50:54.655Z,49.35
2022-11-28T10:53:28.960Z,50.33
2022-11-28T10:56:09.886Z,46.65
2022-11-28T10:58:43.647Z,45.13
2022-11-28T11:01:12.431Z,46.72
2022-11-28T11:03:41.514Z,49.65
2022-11-28T11:06:10.504Z,49.90
2022-11-28T11:08:40.006Z,46.27
2022-11-28T11:11:15.701Z,42.35
2022-11-28T11:13:57.609Z,40.40
2022-11-28T11:16:25.938Z,42.72
2022-11-28T11:18:55.087Z,44.90
2022-11-28T11:21:24.847Z,45.13
2022-11-28T11:24:13.020Z,48.42
2022-11-28T11:26:43.568Z,46.03
2022-11-28T11:29:22.250Z,46.97
2022-11-28T11:31:53.168Z,48.83
2022-11-28T11:34:22.635Z,47.95
2022-11-28T11:36:51.403Z,47.92
2022-11-28T11:39:23.808Z,49.20
2022-11-28T11:41:58.966Z,51.08
2022-11-28T11:44:29.700Z,52.50
2022-11-28T11:47:00.586Z,46.95
2022-11-28T11:49:33.664Z,47.00
2022-11-28T11:52:03.267Z,50.93
2022-11-28T11:54:31.612Z,49.92
2022-11-28T11:57:30.922Z,46.22
2022-11-28T11:59:51.314Z,55.25
2022-11-28T12:02:23.252Z,47.33
2022-11-28T12:04:55.751Z,50.88
2022-11-28T12:07:28.325Z,47.67
2022-11-28T12:10:01.730Z,49.25
2022-11-28T12:12:36.984Z,53.60
2022-11-28T12:15:05.807Z,55.28
2022-11-28T12:17:48.625Z,45.80
2022-11-28T12:20:25.277Z,49.97
2022-11-28T12:22:58.304Z,48.90
2022-11-28T12:25:32.237Z,47.53
2022-11-28T12:28:06.280Z,51.58
2022-11-28T12:30:48.294Z,54.80
2022-11-28T12:33:22.689Z,52.45
2022-11-28T12:36:00.304Z,51.72
2022-11-28T12:38:37.247Z,56.92
2022-11-28T12:41:15.865Z,47.87
2022-11-28T12:43:52.903Z,57.42
2022-11-28T12:46:24.906Z,50.42
2022-11-28T12:49:00.200Z,53.45
2022-11-28T12:51:33.758Z,49.50
2022-11-28T12:54:07.891Z,53.60
2022-11-28T12:56:42.086Z,52.65
2022-11-28T12:59:19.102Z,46.90
2022-11-28T13:01:53.593Z,49.60
2022-11-28T13:04:29.002Z,52.35
2022-11-28T13:07:00.524Z,48.83
2022-11-28T13:09:33.536Z,44.95
2022-11-28T13:12:08.100Z,47.67
2022-11-28T13:14:41.618Z,49.63
2022-11-28T13:17:15.159Z,52.10
2022-11-28T13:19:49.102Z,48.17
2022-11-28T13:22:20.505Z,51.80
2022-11-28T13:24:52.506Z,51.25
2022-11-28T13:27:24.742Z,46.05
2022-11-28T13:29:58.356Z,53.58
2022-11-28T13:32:30.353Z,50.00
2022-11-28T13:35:00.316Z,44.38
2022-11-28T13:40:25.351Z,50.15
2022-11-28T13:43:06.362Z,47.45
2022-11-28T13:45:39.369Z,49.65
2022-11-28T13:48:32.250Z,46.53
2022-11-28T13:51:20.710Z,51.22
2022-11-28T13:53:50.600Z,51.08
2022-11-28T13:56:23.908Z,52.28
2022-11-28T13:58:54.656Z,42.80
2022-11-28T14:01:24.664Z,44.22
2022-11-28T14:03:55.081Z,48.13
2022-11-28T14:06:25.086Z,47.25
2022-11-28T14:09:03.224Z,47.42
2022-11-28T14:11:50.597Z,47.00
2022-11-28T14:14:31.504Z,46.90
2022-11-28T14:17:07.414Z,45.70
2022-11-28T14:19:43.965Z,45.40
2022-11-28T14:22:19.676Z,48.63
2022-11-28T14:24:55.108Z,47.33
2022-11-28T14:27:25.015Z,48.17
2022-11-28T14:29:54.705Z,45.70
2022-11-28T14:32:31.159Z,48.22
2022-11-28T14:35:00.169Z,49.38
2022-11-28T14:37:38.783Z,46.08
2022-11-28T14:40:47.006Z,45.63
2022-11-28T14:43:27.996Z,46.00
2022-11-28T14:46:24.362Z,45.60
2022-11-28T14:49:19.857Z,51.58
2022-11-28T14:55:17.316Z,43.50
2022-11-28T14:57:58.820Z,40.67
2022-11-28T15:00:28.909Z,42.75
2022-11-28T15:03:09.664Z,44.72
2022-11-28T15:05:59.202Z,42.58
2022-11-28T15:08:42.283Z,48.72
2022-11-28T15:11:25.644Z,42.60
2022-11-28T15:14:10.031Z,43.53
2022-11-28T15:16:45.222Z,39.15
2022-11-28T15:19:24.078Z,37.22
2022-11-28T15:21:55.169Z,39.35
2022-11-28T15:24:27.342Z,40.97
2022-11-28T15:26:57.785Z,35.47
2022-11-28T15:29:28.030Z,34.80
2022-11-28T15:31:58.559Z,34.08
2022-11-28T15:34:29.591Z,34.90
2022-11-28T15:37:01.395Z,36.55
2022-11-28T15:39:34.766Z,38.83
2022-11-28T15:42:04.846Z,38.53
2022-11-28T15:44:33.165Z,36.13
2022-11-28T15:47:01.370Z,35.97
2022-11-28T15:49:31.750Z,32.88
2022-11-28T15:52:03.029Z,35.25
2022-11-28T15:54:40.801Z,33.07
2022-11-28T15:57:19.332Z,34.08
2022-11-28T15:59:47.413Z,37.35
2022-11-28T16:02:22.660Z,31.65
2022-11-28T16:04:53.477Z,35.05
2022-11-28T16:07:23.045Z,31.83
2022-11-28T16:10:00.489Z,35.60
2022-11-28T16:12:29.548Z,29.70
2022-11-28T16:15:01.875Z,34.00
2022-11-28T16:17:33.818Z,29.17
2022-11-28T16:20:04.568Z,33.00
2022-11-28T16:22:37.464Z,32.40
2022-11-28T16:25:23.352Z,31.33
2022-11-28T16:27:53.314Z,33.10
2022-11-28T16:30:37.442Z,30.73
2022-11-28T16:33:35.529Z,26.55
2022-11-28T16:36:20.202Z,25.02
2022-11-28T16:38:51.292Z,27.30
2022-11-28T16:41:22.916Z,23.48
2022-11-28T16:43:55.266Z,25.25
2022-11-28T16:46:25.252Z,30.45
2022-11-28T16:48:56.844Z,28.75
2022-11-28T16:51:45.460Z,28.38
2022-11-28T16:54:32.322Z,27.60
2022-11-28T16:57:11.764Z,27.03
2022-11-28T16:59:39.867Z,23.00
2022-11-28T17:02:18.902Z,25.77
2022-11-28T17:04:47.389Z,21.75
2022-11-28T17:07:18.012Z,25.02
2022-11-28T17:09:48.716Z,25.10
2022-11-28T17:12:23.640Z,22.08
2022-11-28T17:14:51.569Z,24.60
2022-11-28T17:17:20.967Z,25.48
2022-11-28T17:19:48.856Z,22.35
2022-11-28T17:22:19.375Z,22.88
2022-11-28T17:24:49.672Z,22.13
2022-11-28T17:27:17.708Z,26.92
2022-11-28T17:29:45.955Z,25.98
2022-11-28T17:32:15.121Z,21.90
2022-11-28T17:34:43.760Z,28.70
2022-11-28T17:37:11.839Z,21.00
2022-11-28T17:39:39.955Z,23.48
2022-11-28T17:42:10.889Z,21.52
2022-11-28T17:44:39.075Z,21.35
2022-11-28T17:47:24.044Z,22.32
2022-11-28T17:49:52.247Z,21.88
2022-11-28T17:52:21.119Z,23.05
2022-11-28T17:54:49.260Z,18.42
2022-11-28T17:57:18.535Z,20.73
2022-11-28T17:59:46.588Z,20.05
2022-11-28T18:02:14.621Z,24.65
2022-11-28T18:04:42.609Z,19.05
2022-11-28T18:07:10.524Z,22.83
2022-11-28T18:09:38.644Z,22.27
2022-11-28T18:12:07.193Z,26.95
2022-11-28T18:14:39.632Z,27.55
2022-11-28T18:17:07.856Z,27.10
2022-11-28T18:19:36.019Z,28.10
2022-11-28T18:22:04.002Z,28.00
2022-11-28T18:24:33.820Z,28.15
2022-11-28T18:27:04.777Z,32.03
2022-11-28T18:29:34.246Z,38.07
2022-11-28T18:32:06.678Z,40.05
2022-11-28T18:34:34.651Z,40.05
2022-11-28T18:37:02.757Z,45.67
2022-11-28T18:39:31.262Z,54.30
2022-11-28T18:42:00.054Z,51.45
2022-11-28T18:44:28.356Z,51.53
2022-11-28T18:46:56.270Z,56.65
2022-11-28T18:49:25.626Z,55.95
2022-11-28T18:51:55.956Z,54.50
2022-11-28T18:54:24.131Z,52.13
2022-11-28T18:56:52.197Z,65.07
2022-11-28T18:59:20.196Z,51.60
2022-11-28T19:01:48.315Z,60.93
2022-11-28T19:04:16.829Z,60.07
2022-11-28T19:06:48.377Z,60.70
2022-11-28T19:09:17.779Z,73.80
2022-11-28T19:11:46.147Z,70.43
2022-11-28T19:14:17.130Z,72.55
2022-11-28T19:16:46.992Z,68.82
2022-11-28T19:19:15.078Z,77.68
2022-11-28T19:21:43.211Z,77.47
2022-11-28T19:24:13.636Z,75.53
2022-11-28T19:26:41.500Z,85.67
2022-11-28T19:29:09.476Z,76.35
2022-11-28T19:31:38.639Z,71.10
2022-11-28T19:34:08.871Z,70.43
2022-11-28T19:36:40.649Z,76.20
2022-11-28T19:39:09.748Z,66.68
2022-11-28T19:41:38.994Z,67.70
2022-11-28T19:44:06.883Z,73.70
2022-11-28T19:46:35.903Z,82.22
2022-11-28T19:49:04.480Z,76.00
2022-11-28T19:51:32.459Z,78.78
2022-11-28T19:54:03.640Z,72.60
2022-11-28T19:56:32.528Z,69.43
2022-11-28T19:59:02.385Z,77.90
2022-11-28T20:01:30.535Z,71.60
2022-11-28T20:03:59.406Z,73.32
2022-11-28T20:06:29.728Z,71.82
2022-11-28T20:09:00.629Z,70.22
2022-11-28T20:11:30.858Z,65.68
2022-11-28T20:14:01.657Z,69.00
2022-11-28T20:16:31.386Z,64.15
2022-11-28T20:19:00.375Z,65.38
2022-11-28T20:21:29.330Z,63.97
2022-11-28T20:23:59.586Z,73.80
2022-11-28T20:26:29.572Z,66.17
2022-11-28T20:28:57.948Z,70.53
2022-11-28T20:31:31.228Z,66.80
2022-11-28T20:33:59.292Z,65.85
2022-11-28T20:36:29.989Z,62.35
2022-11-28T20:38:58.451Z,59.47
2022-11-28T20:41:27.282Z,64.00
2022-11-28T20:43:55.797Z,59.78
2022-11-28T20:46:27.167Z,59.25
2022-11-28T20:48:58.928Z,66.43
2022-11-28T20:51:28.190Z,54.72
2022-11-28T20:53:58.340Z,54.88
2022-11-28T20:56:29.220Z,57.72
2022-11-28T20:58:59.232Z,60.23
2022-11-28T21:01:33.141Z,60.77
2022-11-28T21:04:04.159Z,60.58
2022-11-28T21:06:32.773Z,59.20
2022-11-28T21:09:00.725Z,59.30
2022-11-28T21:11:59.718Z,52.30
2022-11-28T21:14:18.839Z,53.85
2022-11-28T21:16:46.947Z,52.40
2022-11-28T21:19:16.344Z,55.53
2022-11-28T21:21:44.346Z,52.22
2022-11-28T21:24:13.683Z,50.00
2022-11-28T21:26:46.637Z,47.30
2022-11-28T21:29:17.855Z,45.17
2022-11-28T21:31:47.022Z,48.08
2022-11-28T21:34:17.553Z,46.83
2022-11-28T21:36:46.013Z,42.80
2022-11-28T21:39:15.581Z,44.95
2022-11-28T21:41:43.593Z,42.38
2022-11-28T21:44:11.675Z,37.95
2022-11-28T21:46:39.667Z,37.22
2022-11-28T21:49:07.600Z,38.30
2022-11-28T21:51:37.031Z,34.50
2022-11-28T21:54:05.193Z,35.08
2022-11-28T21:56:33.175Z,34.45
2022-11-28T21:59:01.060Z,35.35
2022-11-28T22:01:29.131Z,34.20
2022-11-28T22:04:02.072Z,33.20
2022-11-28T22:06:31.032Z,32.03
2022-11-28T22:09:05.591Z,34.00
2022-11-28T22:11:36.474Z,34.30
2022-11-28T22:14:04.469Z,31.77
2022-11-28T22:16:32.410Z,30.88
2022-11-28T22:19:01.306Z,32.72
2022-11-28T22:21:51.010Z,31.30
2022-11-28T22:24:19.044Z,30.50
2022-11-28T22:26:46.923Z,32.20
2022-11-28T22:29:15.152Z,32.00
2022-11-28T22:31:43.759Z,29.80
2022-11-28T22:34:11.924Z,28.95
2022-11-28T22:36:39.896Z,29.90
2022-11-28T22:39:07.824Z,27.00
2022-11-28T22:41:37.137Z,29.13
2022-11-28T22:44:05.293Z,29.77
2022-11-28T22:46:33.907Z,26.40
2022-11-28T22:49:02.724Z,27.35
2022-11-28T22:51:31.813Z,28.67
2022-11-28T22:54:02.332Z,27.17
2022-11-28T22:56:31.501Z,27.05
2022-11-28T22:59:01.730Z,26.10
2022-11-28T23:01:31.415Z,27.50
2022-11-28T23:03:59.670Z,28.40
2022-11-28T23:06:29.319Z,26.40
2022-11-28T23:08:58.368Z,27.38
2022-11-28T23:11:28.382Z,25.80
2022-11-28T23:13:56.974Z,25.42
2022-11-28T23:16:28.208Z,24.63
2022-11-28T23:19:00.166Z,24.73
2022-11-28T23:21:31.172Z,23.13
2022-11-28T23:23:59.278Z,23.38
2022-11-28T23:26:30.256Z,22.60
2022-11-28T23:29:00.507Z,24.85
2022-11-28T23:31:31.538Z,21.40
2022-11-28T23:34:00.310Z,23.75
2022-11-28T23:36:29.927Z,19.73
2022-11-28T23:38:59.820Z,20.20
2022-11-28T23:41:28.800Z,20.27
2022-11-28T23:43:57.290Z,18.00
2022-11-28T23:46:26.216Z,19.52
2022-11-28T23:48:55.909Z,19.90
2022-11-28T23:51:26.239Z,19.83
2022-11-28T23:53:54.494Z,20.20
2022-11-28T23:56:23.965Z,18.85
2022-11-28T23:58:52.919Z,17.75
